createdAt,value
2023-06-22T00:02:20.346Z,63.23
2023-06-22T00:04:47.413Z,63.31
2023-06-22T00:07:14.279Z,63.46
2023-06-22T00:09:41.686Z,63.63
2023-06-22T00:12:09.079Z,64.09
2023-06-22T00:14:35.922Z,63.91
2023-06-22T00:17:02.864Z,63.90
2023-06-22T00:19:29.976Z,64.06
2023-06-22T00:22:01.569Z,64.28
2023-06-22T00:24:28.597Z,64.36
2023-06-22T00:26:55.650Z,64.44
2023-06-22T00:29:24.841Z,64.80
2023-06-22T00:31:52.668Z,64.90
2023-06-22T00:34:19.647Z,64.89
2023-06-22T00:36:46.516Z,64.93
2023-06-22T00:39:14.121Z,65.07
2023-06-22T00:41:41.043Z,65.36
2023-06-22T00:44:08.136Z,65.42
2023-06-22T00:46:35.040Z,65.71
2023-06-22T00:49:02.234Z,65.76
2023-06-22T00:51:29.219Z,65.65
2023-06-22T00:53:56.153Z,65.79
2023-06-22T00:56:26.463Z,65.73
2023-06-22T00:58:54.291Z,65.83
2023-06-22T01:01:24.616Z,65.89
2023-06-22T01:03:52.693Z,65.95
2023-06-22T01:06:31.213Z,66.46
2023-06-22T01:09:13.591Z,66.07
2023-06-22T01:11:47.072Z,65.91
2023-06-22T01:14:17.452Z,66.07
2023-06-22T01:16:45.361Z,66.31
2023-06-22T01:19:37.080Z,66.30
2023-06-22T01:22:04.586Z,66.21
2023-06-22T01:24:42.855Z,66.19
2023-06-22T01:27:33.405Z,66.32
2023-06-22T01:30:02.140Z,66.01
2023-06-22T01:32:34.353Z,66.02
2023-06-22T01:35:02.036Z,66.01
2023-06-22T01:37:29.517Z,66.35
2023-06-22T01:39:56.522Z,66.12
2023-06-22T01:42:25.315Z,66.09
2023-06-22T01:44:55.006Z,66.13
2023-06-22T01:47:23.136Z,66.04
2023-06-22T01:49:50.292Z,65.99
2023-06-22T01:52:17.117Z,66.16
2023-06-22T01:54:43.956Z,65.94
2023-06-22T01:57:11.816Z,66.01
2023-06-22T02:00:03.116Z,66.13
2023-06-22T02:02:33.895Z,66.22
2023-06-22T02:05:06.480Z,66.31
2023-06-22T02:07:35.805Z,66.55
2023-06-22T02:10:02.655Z,66.55
2023-06-22T02:12:29.837Z,66.36
2023-06-22T02:14:56.827Z,66.56
2023-06-22T02:17:23.784Z,66.48
2023-06-22T02:19:50.716Z,66.84
2023-06-22T02:22:17.713Z,66.74
2023-06-22T02:24:44.547Z,66.90
2023-06-22T02:27:11.685Z,67.29
2023-06-22T02:29:38.782Z,67.17
2023-06-22T02:32:05.863Z,67.52
2023-06-22T02:34:35.036Z,67.41
2023-06-22T02:37:03.797Z,67.66
2023-06-22T02:39:30.710Z,67.59
2023-06-22T02:41:57.616Z,67.64
2023-06-22T02:44:24.862Z,67.48
2023-06-22T02:46:51.743Z,67.29
2023-06-22T02:49:18.665Z,67.16
2023-06-22T02:51:49.255Z,66.95
2023-06-22T02:54:16.231Z,66.67
2023-06-22T02:56:45.158Z,66.61
2023-06-22T02:59:12.408Z,66.82
2023-06-22T03:01:41.658Z,66.74
2023-06-22T03:04:09.470Z,66.64
2023-06-22T03:06:36.952Z,66.85
2023-06-22T03:09:05.131Z,66.96
2023-06-22T03:11:32.717Z,66.91
2023-06-22T03:13:59.980Z,66.86
2023-06-22T03:16:27.021Z,66.70
2023-06-22T03:18:57.101Z,66.83
2023-06-22T03:21:24.404Z,66.73
2023-06-22T03:23:51.381Z,66.70
2023-06-22T03:26:18.858Z,67.01
2023-06-22T03:28:45.856Z,67.00
2023-06-22T03:31:12.905Z,67.05
2023-06-22T03:33:39.855Z,67.17
2023-06-22T03:36:06.885Z,67.04
2023-06-22T03:38:33.759Z,67.54
2023-06-22T03:41:00.789Z,67.77
2023-06-22T03:43:27.829Z,67.90
2023-06-22T03:45:54.892Z,67.60
2023-06-22T03:48:21.736Z,67.76
2023-06-22T03:50:48.757Z,68.23
2023-06-22T03:53:15.691Z,68.20
2023-06-22T03:55:50.655Z,68.32
2023-06-22T03:58:20.233Z,68.48
2023-06-22T04:00:53.659Z,68.78
2023-06-22T04:03:21.203Z,68.87
2023-06-22T04:05:49.158Z,69.16
2023-06-22T04:08:16.460Z,69.04
2023-06-22T04:10:43.548Z,69.59
2023-06-22T04:13:10.472Z,69.50
2023-06-22T04:15:37.496Z,69.62
2023-06-22T04:18:04.486Z,69.59
2023-06-22T04:20:33.256Z,69.59
2023-06-22T04:23:00.839Z,69.69
2023-06-22T04:25:27.765Z,69.74
2023-06-22T04:27:54.627Z,69.87
2023-06-22T04:30:21.591Z,70.04
2023-06-22T04:32:57.495Z,69.75
2023-06-22T04:35:29.653Z,69.69
2023-06-22T04:37:59.269Z,69.63
2023-06-22T04:40:26.157Z,69.74
2023-06-22T04:42:56.361Z,69.73
2023-06-22T04:45:23.269Z,69.92
2023-06-22T04:47:50.554Z,69.66
2023-06-22T04:50:18.655Z,69.70
2023-06-22T04:52:46.826Z,69.63
2023-06-22T04:55:15.631Z,69.75
2023-06-22T04:57:46.042Z,69.74
2023-06-22T05:00:14.096Z,69.52
2023-06-22T05:02:41.610Z,69.60
2023-06-22T05:05:10.032Z,69.69
2023-06-22T05:07:37.487Z,69.48
2023-06-22T05:10:04.787Z,69.74
2023-06-22T05:12:31.929Z,69.64
2023-06-22T05:14:59.128Z,69.79
2023-06-22T05:17:26.438Z,69.50
2023-06-22T05:19:53.614Z,69.27
2023-06-22T05:22:20.711Z,69.61
2023-06-22T05:24:47.764Z,69.53
2023-06-22T05:27:15.406Z,69.81
2023-06-22T05:29:43.797Z,69.81
2023-06-22T05:32:10.843Z,69.97
2023-06-22T05:34:37.841Z,69.65
2023-06-22T05:37:05.101Z,69.72
2023-06-22T05:39:32.023Z,69.63
2023-06-22T05:41:59.067Z,69.43
2023-06-22T05:44:26.099Z,69.53
2023-06-22T05:46:53.078Z,69.42
2023-06-22T05:49:20.098Z,69.62
2023-06-22T05:51:46.980Z,69.74
2023-06-22T05:54:15.191Z,69.45
2023-06-22T05:56:42.110Z,69.63
2023-06-22T05:59:08.946Z,69.65
2023-06-22T06:01:37.241Z,69.61
2023-06-22T06:04:05.615Z,69.58
2023-06-22T06:06:32.697Z,69.86
2023-06-22T06:09:00.892Z,70.04
2023-06-22T06:11:28.296Z,70.15
2023-06-22T06:13:55.314Z,70.16
2023-06-22T06:16:23.702Z,70.15
2023-06-22T06:18:51.984Z,69.93
2023-06-22T06:21:18.826Z,70.11
2023-06-22T06:23:45.982Z,70.21
2023-06-22T06:26:13.081Z,70.05
2023-06-22T06:28:39.929Z,69.73
2023-06-22T06:31:08.834Z,69.94
2023-06-22T06:33:38.016Z,69.77
2023-06-22T06:36:05.071Z,69.83
2023-06-22T06:38:32.278Z,69.24
2023-06-22T06:40:59.866Z,69.52
2023-06-22T06:43:26.945Z,69.24
2023-06-22T06:45:53.896Z,68.21
2023-06-22T06:48:20.962Z,68.33
2023-06-22T06:50:47.980Z,68.59
2023-06-22T06:53:14.803Z,68.52
2023-06-22T06:55:42.052Z,68.70
2023-06-22T06:58:09.432Z,68.58
2023-06-22T07:00:37.208Z,67.71
2023-06-22T07:03:04.518Z,67.91
2023-06-22T07:05:31.418Z,67.71
2023-06-22T07:07:58.319Z,68.00
2023-06-22T07:10:25.325Z,66.96
2023-06-22T07:12:52.288Z,67.08
2023-06-22T07:15:19.292Z,66.61
2023-06-22T07:17:46.288Z,66.62
2023-06-22T07:20:26.527Z,66.07
2023-06-22T07:22:54.682Z,65.86
2023-06-22T07:25:21.655Z,66.00
2023-06-22T07:28:02.957Z,65.65
2023-06-22T07:30:30.764Z,65.82
2023-06-22T07:32:58.314Z,64.92
2023-06-22T07:35:26.235Z,65.82
2023-06-22T07:37:53.175Z,65.04
2023-06-22T07:40:20.043Z,64.97
2023-06-22T07:42:49.552Z,64.60
2023-06-22T07:45:16.518Z,64.66
2023-06-22T07:47:43.419Z,64.53
2023-06-22T07:50:10.913Z,64.40
2023-06-22T07:52:37.822Z,64.46
2023-06-22T07:55:05.269Z,64.11
2023-06-22T07:57:35.692Z,64.33
2023-06-22T08:00:05.687Z,63.72
2023-06-22T08:02:32.616Z,64.22
2023-06-22T08:05:10.523Z,64.30
2023-06-22T08:07:48.417Z,63.24
2023-06-22T08:10:15.942Z,63.22
2023-06-22T08:12:42.784Z,62.59
2023-06-22T08:15:10.906Z,62.74
2023-06-22T08:17:39.409Z,63.28
2023-06-22T08:20:13.995Z,62.56
2023-06-22T08:22:41.796Z,62.87
2023-06-22T08:25:09.618Z,62.18
2023-06-22T08:27:36.838Z,61.65
2023-06-22T08:30:03.973Z,61.75
2023-06-22T08:32:31.049Z,61.76
2023-06-22T08:34:58.178Z,61.65
2023-06-22T08:37:31.986Z,62.25
2023-06-22T08:40:00.386Z,62.24
2023-06-22T08:42:27.348Z,61.27
2023-06-22T08:44:55.077Z,60.96
2023-06-22T08:47:22.762Z,60.45
2023-06-22T08:49:50.141Z,60.27
2023-06-22T08:52:17.169Z,59.98
2023-06-22T08:54:44.003Z,59.72
2023-06-22T08:57:10.982Z,58.87
2023-06-22T08:59:37.901Z,58.04
2023-06-22T09:02:04.956Z,57.51
2023-06-22T09:04:35.944Z,57.53
2023-06-22T09:07:03.567Z,57.06
2023-06-22T09:09:30.585Z,56.57
2023-06-22T09:11:57.387Z,56.44
2023-06-22T09:14:24.484Z,55.23
2023-06-22T09:16:51.337Z,54.57
2023-06-22T09:19:18.170Z,54.90
2023-06-22T09:21:45.111Z,55.47
2023-06-22T09:24:12.046Z,55.80
2023-06-22T09:26:38.821Z,56.08
2023-06-22T09:29:08.914Z,55.82
2023-06-22T09:31:35.844Z,56.07
2023-06-22T09:34:02.856Z,55.35
2023-06-22T09:36:29.811Z,54.90
2023-06-22T09:38:57.179Z,54.46
2023-06-22T09:41:24.368Z,53.42
2023-06-22T09:43:52.597Z,52.56
2023-06-22T09:46:22.962Z,52.29
2023-06-22T09:48:49.780Z,51.49
2023-06-22T09:51:18.176Z,51.49
2023-06-22T09:53:45.152Z,51.46
2023-06-22T09:56:16.386Z,51.68
2023-06-22T09:58:43.887Z,51.63
2023-06-22T10:01:11.490Z,51.31
2023-06-22T10:03:38.674Z,51.04
2023-06-22T10:06:06.002Z,50.99
2023-06-22T10:08:32.814Z,50.73
2023-06-22T10:10:59.686Z,49.76
2023-06-22T10:13:26.619Z,49.85
2023-06-22T10:15:54.307Z,49.75
2023-06-22T10:18:21.123Z,49.88
2023-06-22T10:20:52.835Z,50.15
2023-06-22T10:23:22.958Z,49.41
2023-06-22T10:25:49.837Z,49.60
2023-06-22T10:28:17.095Z,49.69
2023-06-22T10:30:44.393Z,49.04
2023-06-22T10:33:11.600Z,48.71
2023-06-22T10:35:41.200Z,48.77
2023-06-22T10:38:08.139Z,48.86
2023-06-22T10:40:35.080Z,48.39
2023-06-22T10:43:02.070Z,48.42
2023-06-22T10:45:29.642Z,48.24
2023-06-22T10:47:56.962Z,48.13
2023-06-22T10:50:25.853Z,47.19
2023-06-22T10:52:52.707Z,46.43
2023-06-22T10:55:19.531Z,47.11
2023-06-22T10:57:48.506Z,46.92
2023-06-22T11:00:15.849Z,46.77
2023-06-22T11:02:43.013Z,46.17
2023-06-22T11:05:10.179Z,46.55
2023-06-22T11:10:09.838Z,46.56
2023-06-22T11:12:36.980Z,46.51
2023-06-22T11:15:04.160Z,46.64
2023-06-22T11:17:30.908Z,46.49
2023-06-22T11:19:57.932Z,46.22
2023-06-22T11:22:26.265Z,46.10
2023-06-22T11:24:53.282Z,46.58
2023-06-22T11:27:20.276Z,46.80
2023-06-22T11:29:47.257Z,46.08
2023-06-22T11:32:15.012Z,46.61
2023-06-22T11:34:42.155Z,47.04
2023-06-22T11:37:08.893Z,46.68
2023-06-22T11:39:42.540Z,46.75
2023-06-22T11:42:10.792Z,47.09
2023-06-22T11:44:37.687Z,46.30
2023-06-22T11:47:05.404Z,46.31
2023-06-22T11:49:32.654Z,46.04
2023-06-22T11:51:59.633Z,45.67
2023-06-22T11:54:26.442Z,45.88
2023-06-22T11:56:53.337Z,45.98
2023-06-22T11:59:20.127Z,45.17
2023-06-22T12:01:47.295Z,44.97
2023-06-22T12:04:14.214Z,44.12
2023-06-22T12:06:43.255Z,44.30
2023-06-22T12:09:10.486Z,44.35
2023-06-22T12:11:37.453Z,44.19
2023-06-22T12:14:05.079Z,43.63
2023-06-22T12:16:31.884Z,43.19
2023-06-22T12:18:58.759Z,43.00
2023-06-22T12:21:25.607Z,42.50
2023-06-22T12:23:52.507Z,42.12
2023-06-22T12:26:19.753Z,41.73
2023-06-22T12:28:46.502Z,41.09
2023-06-22T12:31:13.338Z,40.60
2023-06-22T12:33:40.319Z,40.33
2023-06-22T12:36:07.133Z,40.01
2023-06-22T12:38:34.229Z,39.49
2023-06-22T12:41:01.127Z,38.65
2023-06-22T12:43:27.941Z,38.66
2023-06-22T12:45:54.861Z,39.31
2023-06-22T12:48:23.559Z,39.01
2023-06-22T12:50:50.346Z,39.38
2023-06-22T12:53:17.291Z,39.15
2023-06-22T12:55:44.418Z,38.48
2023-06-22T12:58:11.225Z,38.12
2023-06-22T13:00:39.177Z,37.62
2023-06-22T13:03:06.507Z,37.71
2023-06-22T13:05:36.019Z,38.00
2023-06-22T13:08:03.700Z,38.15
2023-06-22T13:10:31.672Z,38.46
2023-06-22T13:13:01.963Z,38.83
2023-06-22T13:15:32.495Z,39.44
2023-06-22T13:17:59.659Z,40.11
2023-06-22T13:20:26.561Z,40.26
2023-06-22T13:22:54.905Z,40.39
2023-06-22T13:25:24.960Z,41.52
2023-06-22T13:27:51.759Z,41.89
2023-06-22T13:30:18.863Z,42.00
2023-06-22T13:32:45.807Z,42.50
2023-06-22T13:35:13.056Z,42.44
2023-06-22T13:37:40.439Z,42.79
2023-06-22T13:40:08.467Z,42.90
2023-06-22T13:42:35.484Z,43.52
2023-06-22T13:45:02.670Z,43.87
2023-06-22T13:47:31.331Z,43.99
2023-06-22T13:50:01.994Z,43.95
2023-06-22T13:52:29.094Z,44.64
2023-06-22T13:54:55.879Z,44.61
2023-06-22T13:57:22.651Z,45.05
2023-06-22T13:59:50.060Z,45.02
2023-06-22T14:02:17.087Z,45.20
2023-06-22T14:04:44.014Z,45.38
2023-06-22T14:07:11.096Z,45.61
2023-06-22T14:09:38.020Z,45.71
2023-06-22T14:12:06.871Z,45.61
2023-06-22T14:14:36.914Z,45.71
2023-06-22T14:17:05.227Z,45.62
2023-06-22T14:19:32.124Z,45.59
2023-06-22T14:21:59.012Z,45.92
2023-06-22T14:24:27.971Z,45.96
2023-06-22T14:26:56.065Z,46.19
2023-06-22T14:29:23.578Z,46.02
2023-06-22T14:31:50.782Z,46.21
2023-06-22T14:34:17.682Z,46.34
2023-06-22T14:36:44.747Z,46.35
2023-06-22T14:39:11.743Z,46.40
2023-06-22T14:41:38.510Z,46.63
2023-06-22T14:44:05.768Z,46.75
2023-06-22T14:46:32.600Z,46.69
2023-06-22T14:48:59.465Z,46.86
2023-06-22T14:51:26.375Z,46.64
2023-06-22T14:53:53.244Z,46.67
2023-06-22T14:56:20.185Z,46.97
2023-06-22T14:58:47.774Z,46.93
2023-06-22T15:01:15.451Z,46.96
2023-06-22T15:03:42.365Z,47.15
2023-06-22T15:06:09.622Z,47.49
2023-06-22T15:08:38.905Z,47.20
2023-06-22T15:11:05.874Z,47.26
2023-06-22T15:13:35.730Z,47.13
2023-06-22T15:16:04.900Z,47.49
2023-06-22T15:18:32.239Z,47.52
2023-06-22T15:21:01.224Z,47.48
2023-06-22T15:23:30.065Z,47.86
2023-06-22T15:25:57.843Z,47.96
2023-06-22T15:28:24.942Z,48.21
2023-06-22T15:30:51.765Z,48.15
2023-06-22T15:33:18.706Z,47.93
2023-06-22T15:35:45.852Z,48.52
2023-06-22T15:38:12.686Z,48.30
2023-06-22T15:40:39.593Z,48.55
2023-06-22T15:43:06.506Z,48.49
2023-06-22T15:45:33.279Z,48.85
2023-06-22T15:48:00.186Z,48.67
2023-06-22T15:50:27.378Z,49.05
2023-06-22T15:52:54.250Z,48.75
2023-06-22T15:55:21.090Z,48.97
2023-06-22T15:57:48.260Z,48.89
2023-06-22T16:00:19.063Z,48.94
2023-06-22T16:02:46.672Z,49.09
2023-06-22T16:05:13.663Z,49.24
2023-06-22T16:07:40.683Z,49.56
2023-06-22T16:10:08.081Z,49.69
2023-06-22T16:12:35.701Z,49.59
2023-06-22T16:15:03.312Z,49.66
2023-06-22T16:17:30.215Z,49.53
2023-06-22T16:19:58.689Z,49.68
2023-06-22T16:22:25.484Z,49.90
2023-06-22T16:24:53.505Z,49.82
2023-06-22T16:27:20.823Z,49.92
2023-06-22T16:29:47.652Z,49.96
2023-06-22T16:32:15.413Z,50.06
2023-06-22T16:34:42.512Z,50.64
2023-06-22T16:37:09.381Z,50.43
2023-06-22T16:39:36.259Z,50.19
2023-06-22T16:42:03.206Z,50.43
2023-06-22T16:44:30.040Z,50.23
2023-06-22T16:46:57.133Z,50.58
2023-06-22T16:49:24.022Z,51.25
2023-06-22T16:51:50.850Z,50.88
2023-06-22T16:54:17.773Z,51.16
2023-06-22T16:56:44.655Z,50.91
2023-06-22T16:59:11.570Z,51.33
2023-06-22T17:01:39.304Z,51.47
2023-06-22T17:04:08.535Z,51.10
2023-06-22T17:06:35.343Z,51.40
2023-06-22T17:09:03.046Z,51.33
2023-06-22T17:11:30.760Z,51.53
2023-06-22T17:13:59.016Z,51.20
2023-06-22T17:16:26.208Z,51.55
2023-06-22T17:18:53.732Z,51.44
2023-06-22T17:21:24.273Z,51.41
2023-06-22T17:23:51.958Z,51.73
2023-06-22T17:26:19.029Z,51.71
2023-06-22T17:28:49.970Z,51.40
2023-06-22T17:31:16.978Z,51.36
2023-06-22T17:33:44.082Z,51.23
2023-06-22T17:36:14.890Z,51.33
2023-06-22T17:38:41.765Z,51.95
2023-06-22T17:41:10.080Z,52.10
2023-06-22T17:43:47.454Z,51.99
2023-06-22T17:46:16.483Z,52.10
2023-06-22T17:48:48.405Z,51.95
2023-06-22T17:51:16.851Z,52.03
2023-06-22T17:53:52.625Z,51.87
2023-06-22T17:56:22.417Z,51.60
2023-06-22T17:58:55.032Z,51.68
2023-06-22T18:01:36.454Z,51.55
2023-06-22T18:04:07.065Z,51.20
2023-06-22T18:06:37.206Z,51.25
2023-06-22T18:09:05.744Z,51.63
2023-06-22T18:11:36.372Z,51.32
2023-06-22T18:14:04.558Z,51.28
2023-06-22T18:16:32.706Z,50.99
2023-06-22T18:19:00.680Z,51.00
2023-06-22T18:21:28.327Z,50.93
2023-06-22T18:23:55.315Z,51.00
2023-06-22T18:26:25.343Z,51.21
2023-06-22T18:28:53.434Z,51.00
2023-06-22T18:31:21.479Z,51.05
2023-06-22T18:33:53.345Z,50.64
2023-06-22T18:36:27.221Z,50.40
2023-06-22T18:38:57.932Z,50.37
2023-06-22T18:41:36.590Z,50.91
2023-06-22T18:44:04.591Z,50.69
2023-06-22T18:46:36.119Z,50.45
2023-06-22T18:49:15.685Z,51.04
2023-06-22T18:51:55.026Z,51.17
2023-06-22T18:54:37.828Z,51.10
2023-06-22T18:57:22.684Z,51.00
2023-06-22T18:59:52.732Z,50.91
2023-06-22T19:02:19.661Z,51.27
2023-06-22T19:04:46.621Z,51.14
2023-06-22T19:07:14.232Z,51.15
2023-06-22T19:09:41.119Z,51.24
2023-06-22T19:12:21.252Z,51.57
2023-06-22T19:15:08.279Z,51.88
2023-06-22T19:17:35.445Z,52.17
2023-06-22T19:20:07.004Z,52.32
2023-06-22T19:22:54.141Z,52.57
2023-06-22T19:25:22.510Z,52.23
2023-06-22T19:27:52.256Z,52.24
2023-06-22T19:30:19.337Z,52.23
2023-06-22T19:32:47.848Z,52.32
2023-06-22T19:35:20.478Z,52.46
2023-06-22T19:37:48.055Z,52.52
2023-06-22T19:40:21.968Z,52.37
2023-06-22T19:42:54.149Z,52.52
2023-06-22T19:45:20.910Z,52.42
2023-06-22T19:47:47.831Z,52.79
2023-06-22T19:50:15.654Z,52.27
2023-06-22T19:52:43.194Z,52.30
2023-06-22T19:55:15.069Z,52.74
2023-06-22T19:57:48.791Z,52.43
2023-06-22T20:00:20.702Z,52.46
2023-06-22T20:02:51.218Z,52.97
2023-06-22T20:05:20.853Z,52.80
2023-06-22T20:07:47.731Z,53.03
2023-06-22T20:10:15.379Z,52.95
2023-06-22T20:12:42.287Z,53.58
2023-06-22T20:15:22.318Z,53.27
2023-06-22T20:18:05.925Z,53.27
2023-06-22T20:20:36.197Z,53.03
2023-06-22T20:23:04.515Z,53.61
2023-06-22T20:25:42.158Z,53.27
2023-06-22T20:28:15.739Z,53.30
2023-06-22T20:31:06.020Z,53.73
2023-06-22T20:33:33.449Z,53.21
2023-06-22T20:36:00.796Z,53.48
2023-06-22T20:38:29.326Z,53.44
2023-06-22T20:40:56.613Z,53.17
2023-06-22T20:43:25.129Z,53.56
2023-06-22T20:45:55.647Z,54.05
2023-06-22T20:48:33.464Z,53.86
2023-06-22T20:51:05.497Z,54.35
2023-06-22T20:53:32.938Z,54.34
2023-06-22T20:55:59.785Z,54.60
2023-06-22T20:58:26.733Z,54.86
2023-06-22T21:00:54.330Z,54.84
2023-06-22T21:03:21.275Z,55.00
2023-06-22T21:05:48.417Z,55.28
2023-06-22T21:08:15.299Z,55.57
2023-06-22T21:10:42.073Z,55.92
2023-06-22T21:13:10.600Z,56.13
2023-06-22T21:15:37.648Z,56.33
2023-06-22T21:18:04.514Z,56.25
2023-06-22T21:20:31.487Z,56.50
2023-06-22T21:22:58.267Z,56.89
2023-06-22T21:25:25.042Z,56.90
2023-06-22T21:27:52.326Z,57.26
2023-06-22T21:30:19.265Z,57.58
2023-06-22T21:32:46.194Z,57.26
2023-06-22T21:35:14.107Z,57.36
2023-06-22T21:37:42.885Z,57.33
2023-06-22T21:40:10.455Z,57.25
2023-06-22T21:42:37.365Z,57.43
2023-06-22T21:45:04.437Z,57.64
2023-06-22T21:47:31.263Z,57.90
2023-06-22T21:49:59.798Z,57.63
2023-06-22T21:52:30.502Z,57.77
2023-06-22T21:54:57.730Z,58.15
2023-06-22T21:57:28.167Z,57.83
2023-06-22T21:59:55.571Z,58.02
2023-06-22T22:02:23.182Z,58.34
2023-06-22T22:04:52.824Z,58.31
2023-06-22T22:07:20.184Z,58.56
2023-06-22T22:09:47.149Z,58.63
2023-06-22T22:12:14.850Z,58.76
2023-06-22T22:14:42.152Z,59.36
2023-06-22T22:17:10.083Z,59.36
2023-06-22T22:19:37.318Z,59.28
2023-06-22T22:22:05.155Z,59.63
2023-06-22T22:24:32.455Z,59.50
2023-06-22T22:26:59.747Z,59.86
2023-06-22T22:29:28.973Z,59.77
2023-06-22T22:31:56.180Z,59.77
2023-06-22T22:34:23.164Z,59.87
2023-06-22T22:36:50.041Z,60.11
2023-06-22T22:39:36.166Z,60.21
2023-06-22T22:42:03.326Z,60.23
2023-06-22T22:44:30.202Z,60.42
2023-06-22T22:46:58.163Z,60.24
2023-06-22T22:49:25.130Z,60.44
2023-06-22T22:51:52.436Z,60.36
2023-06-22T22:54:19.916Z,60.55
2023-06-22T22:56:47.160Z,60.77
2023-06-22T22:59:14.040Z,60.44
2023-06-22T23:01:42.518Z,60.58
2023-06-22T23:04:09.492Z,60.75
2023-06-22T23:06:38.954Z,60.75
2023-06-22T23:09:06.561Z,60.76
2023-06-22T23:11:33.374Z,60.83
2023-06-22T23:14:00.173Z,60.98
2023-06-22T23:16:28.006Z,61.29
2023-06-22T23:18:54.933Z,61.33
2023-06-22T23:21:22.051Z,61.48
2023-06-22T23:23:48.958Z,61.45
2023-06-22T23:26:18.831Z,61.73
2023-06-22T23:28:45.721Z,61.86
2023-06-22T23:31:12.681Z,61.86
2023-06-22T23:33:41.088Z,61.90
2023-06-22T23:36:08.051Z,61.87
2023-06-22T23:38:35.752Z,62.09
2023-06-22T23:41:02.687Z,61.75
2023-06-22T23:43:29.653Z,62.13
2023-06-22T23:45:56.725Z,62.31
2023-06-22T23:48:23.552Z,62.28
2023-06-22T23:50:51.066Z,62.28
2023-06-22T23:53:18.071Z,62.43
2023-06-22T23:55:45.030Z,62.11
2023-06-22T23:58:12.330Z,62.54
